Time,TemperatureF,DewpointF,PressureIn,WindDirection,WindDirectionDegrees,WindSpeedMPH,WindSpeedGustMPH,Humidity,HourlyPrecipIn,Conditions,Clouds,dailyrainin,SolarRadiationWatts/m^2,SoftwareType,DateUTC
2013-09-09 00:02:00,61.0,59.9,29.96,ENE,66,0.0,0.0,96,0.00,,,0.00,0,Wunderground v.1.15,2013-09-09 05:02:00,
2013-09-09 00:12:00,60.7,59.6,29.96,ENE,66,0.0,0.0,96,0.00,,,0.00,0,Wunderground v.1.15,2013-09-09 05:12:00,
2013-09-09 00:22:00,60.7,59.8,29.97,ENE,66,0.0,0.0,97,0.00,,,0.00,0,Wunderground v.1.15,2013-09-09 05:22:00,
2013-09-09 00:32:00,60.9,60.3,29.97,ENE,66,1.0,1.0,98,0.00,,,0.00,0,Wunderground v.1.15,2013-09-09 05:32:00,
2013-09-09 00:42:00,60.7,60.1,29.97,ENE,66,0.0,0.0,98,0.00,,,0.00,0,Wunderground v.1.15,2013-09-09 05:42:00,
2013-09-09 00:52:00,61.0,60.4,29.97,ENE,66,0.0,1.0,98,0.00,,,0.00,0,Wunderground v.1.15,2013-09-09 05:52:00,
2013-09-09 01:12:00,62.3,62.0,29.96,SE,128,1.0,1.0,99,0.00,,,0.00,0,Wunderground v.1.15,2013-09-09 06:12:00,
2013-09-09 01:22:00,63.2,62.0,29.96,SSE,158,3.0,4.0,96,0.00,,,0.00,0,Wunderground v.1.15,2013-09-09 06:22:00,
2013-09-09 01:42:00,64.5,60.5,29.96,SSE,165,3.0,3.0,87,0.00,,,0.00,0,Wunderground v.1.15,2013-09-09 06:42:00,
2013-09-09 01:52:00,64.7,60.1,29.95,South,171,4.0,6.0,85,0.00,,,0.00,0,Wunderground v.1.15,2013-09-09 06:52:00,
2013-09-09 02:02:00,64.7,60.1,29.94,South,172,5.0,7.0,85,0.00,,,0.00,0,Wunderground v.1.15,2013-09-09 07:02:00,
2013-09-09 02:12:00,64.7,60.1,29.94,SE,145,4.0,6.0,85,0.00,,,0.00,0,Wunderground v.1.15,2013-09-09 07:12:00,
2013-09-09 02:22:00,64.5,59.9,29.94,SE,138,4.0,5.0,85,0.00,,,0.00,0,Wunderground v.1.15,2013-09-09 07:22:00,
2013-09-09 02:32:00,64.3,59.4,29.94,SSE,154,5.0,5.0,84,0.00,,,0.00,0,Wunderground v.1.15,2013-09-09 07:32:00,
2013-09-09 02:42:00,64.2,59.9,29.94,SSE,154,5.0,7.0,86,0.00,,,0.00,0,Wunderground v.1.15,2013-09-09 07:42:00,
2013-09-09 02:52:00,64.0,60.1,29.93,SSE,158,5.0,5.0,87,0.00,,,0.00,0,Wunderground v.1.15,2013-09-09 07:52:00,
2013-09-09 03:02:00,63.9,60.0,29.93,SSE,167,3.0,3.0,87,0.00,,,0.00,0,Wunderground v.1.15,2013-09-09 08:02:00,
2013-09-09 03:12:00,64.0,60.1,29.93,South,174,2.0,3.0,87,0.00,,,0.00,0,Wunderground v.1.15,2013-09-09 08:12:00,
2013-09-09 03:22:00,64.0,60.1,29.94,SSE,155,2.0,2.0,87,0.00,,,0.00,0,Wunderground v.1.15,2013-09-09 08:22:00,
2013-09-09 03:32:00,64.2,60.2,29.93,SSE,155,2.0,4.0,87,0.00,,,0.00,0,Wunderground v.1.15,2013-09-09 08:32:00,
2013-09-09 03:42:00,64.2,60.2,29.93,SSE,147,3.0,3.0,87,0.00,,,0.00,0,Wunderground v.1.15,2013-09-09 08:42:00,
2013-09-09 03:52:00,64.3,60.3,29.93,South,178,4.0,4.0,87,0.00,,,0.00,0,Wunderground v.1.15,2013-09-09 08:52:00,
2013-09-09 04:02:00,64.5,59.9,29.93,South,169,5.0,6.0,85,0.00,,,0.00,0,Wunderground v.1.15,2013-09-09 09:02:00,
2013-09-09 04:12:00,64.3,60.0,29.93,SSE,154,5.0,5.0,86,0.00,,,0.00,0,Wunderground v.1.15,2013-09-09 09:12:00,
2013-09-09 04:22:00,64.3,60.0,29.92,SSE,168,4.0,4.0,86,0.00,,,0.00,0,Wunderground v.1.15,2013-09-09 09:22:00,
2013-09-09 04:32:00,64.0,60.1,29.92,SSE,148,4.0,6.0,87,0.00,,,0.00,0,Wunderground v.1.15,2013-09-09 09:32:00,
2013-09-09 04:42:00,63.9,60.6,29.92,SSE,158,4.0,4.0,89,0.00,,,0.00,0,Wunderground v.1.15,2013-09-09 09:42:00,
2013-09-09 04:52:00,63.7,60.7,29.91,SSE,148,3.0,3.0,90,0.00,,,0.00,0,Wunderground v.1.15,2013-09-09 09:52:00,
2013-09-09 05:02:00,63.5,60.8,29.91,SSE,162,3.0,6.0,91,0.00,,,0.00,0,Wunderground v.1.15,2013-09-09 10:02:00,
2013-09-09 05:12:00,63.5,61.1,29.91,SE,131,3.0,3.0,92,0.00,,,0.00,0,Wunderground v.1.15,2013-09-09 10:12:00,
2013-09-09 05:22:00,63.5,61.1,29.91,SE,136,4.0,4.0,92,0.00,,,0.00,0,Wunderground v.1.15,2013-09-09 10:22:00,
2013-09-09 05:32:00,63.5,61.4,29.90,SE,137,2.0,6.0,93,0.00,,,0.00,0,Wunderground v.1.15,2013-09-09 10:32:00,
2013-09-09 05:42:00,63.7,61.3,29.90,SSE,148,2.0,3.0,92,0.00,,,0.00,0,Wunderground v.1.15,2013-09-09 10:42:00,
2013-09-09 05:52:00,63.9,61.5,29.90,SSE,158,3.0,6.0,92,0.00,,,0.00,0,Wunderground v.1.15,2013-09-09 10:52:00,
2013-09-09 06:02:00,64.0,61.6,29.90,SSE,147,2.0,3.0,92,0.00,,,0.00,0,Wunderground v.1.15,2013-09-09 11:02:00,
2013-09-09 06:12:00,64.2,61.8,29.90,SE,144,4.0,4.0,92,0.00,,,0.00,0,Wunderground v.1.15,2013-09-09 11:12:00,
2013-09-09 06:22:00,64.3,62.2,29.90,SSE,168,5.0,5.0,93,0.00,,,0.00,0,Wunderground v.1.15,2013-09-09 11:22:00,
2013-09-09 06:42:00,64.3,62.8,29.90,SSE,152,5.0,6.0,95,0.00,,,0.00,0,Wunderground v.1.15,2013-09-09 11:42:00,
2013-09-09 06:52:00,64.3,63.1,29.90,SE,144,4.0,7.0,96,0.00,,,0.00,0,Wunderground v.1.15,2013-09-09 11:52:00,
2013-09-09 07:02:00,64.3,63.1,29.90,SSE,157,5.0,5.0,96,0.00,,,0.00,0,Wunderground v.1.15,2013-09-09 12:02:00,
2013-09-09 07:12:00,64.2,63.0,29.90,SE,124,7.0,7.0,96,0.00,,,0.00,0,Wunderground v.1.15,2013-09-09 12:12:00,
2013-09-09 07:22:00,64.2,63.0,29.90,South,171,7.0,7.0,96,0.00,,,0.00,0,Wunderground v.1.15,2013-09-09 12:22:00,
2013-09-09 07:32:00,64.3,63.4,29.90,SE,137,6.0,6.0,97,0.00,,,0.00,21,Wunderground v.1.15,2013-09-09 12:32:00,
2013-09-09 07:42:00,64.3,64.0,29.90,SSE,152,6.0,8.0,99,0.00,,,0.00,21,Wunderground v.1.15,2013-09-09 12:42:00,
2013-09-09 07:52:00,64.5,64.2,29.90,South,175,7.0,7.0,99,0.00,,,0.00,21,Wunderground v.1.15,2013-09-09 12:52:00,
2013-09-09 08:02:00,64.7,64.7,29.90,South,184,7.0,7.0,100,0.00,,,0.00,14,Wunderground v.1.15,2013-09-09 13:02:00,
2013-09-09 08:12:00,64.7,64.7,29.90,South,169,8.0,8.0,100,0.00,,,0.00,14,Wunderground v.1.15,2013-09-09 13:12:00,
2013-09-09 08:22:00,64.7,64.7,29.90,SSE,152,6.0,7.0,100,0.00,,,0.00,26,Wunderground v.1.15,2013-09-09 13:22:00,
2013-09-09 08:32:00,64.7,64.7,29.88,SSE,160,6.0,7.0,100,0.00,,,0.00,33,Wunderground v.1.15,2013-09-09 13:32:00,
2013-09-09 08:42:00,64.8,64.8,29.88,SSE,151,6.0,6.0,100,0.00,,,0.00,42,Wunderground v.1.15,2013-09-09 13:42:00,
2013-09-09 08:52:00,64.8,64.8,29.88,South,176,8.0,8.0,100,0.00,,,0.00,55,Wunderground v.1.15,2013-09-09 13:52:00,
2013-09-09 09:02:00,65.2,65.2,29.88,South,175,7.0,11.0,100,0.00,,,0.00,48,Wunderground v.1.15,2013-09-09 14:02:00,
2013-09-09 09:12:00,65.2,65.2,29.88,SE,140,7.0,7.0,100,0.00,,,0.00,67,Wunderground v.1.15,2013-09-09 14:12:00,
2013-09-09 09:22:00,65.2,65.2,29.88,South,174,8.0,8.0,100,0.00,,,0.00,62,Wunderground v.1.15,2013-09-09 14:22:00,
2013-09-09 09:32:00,65.3,65.3,29.88,SSE,168,9.0,11.0,100,0.00,,,0.00,72,Wunderground v.1.15,2013-09-09 14:32:00,
2013-09-09 09:42:00,65.5,65.5,29.88,SE,133,8.0,8.0,100,0.00,,,0.00,90,Wunderground v.1.15,2013-09-09 14:42:00,
2013-09-09 09:52:00,65.8,65.8,29.88,South,186,8.0,8.0,100,0.00,,,0.00,116,Wunderground v.1.15,2013-09-09 14:52:00,
2013-09-09 10:02:00,65.8,65.5,29.89,SSE,165,8.0,8.0,99,0.00,,,0.00,90,Wunderground v.1.15,2013-09-09 15:02:00,
2013-09-09 10:12:00,66.1,65.5,29.89,SSW,193,8.0,10.0,98,0.00,,,0.00,106,Wunderground v.1.15,2013-09-09 15:12:00,
2013-09-09 10:22:00,66.3,65.4,29.89,SSW,199,8.0,13.0,97,0.00,,,0.00,72,Wunderground v.1.15,2013-09-09 15:22:00,
2013-09-09 10:32:00,66.3,65.4,29.89,SSW,193,9.0,9.0,97,0.00,,,0.00,62,Wunderground v.1.15,2013-09-09 15:32:00,
2013-09-09 10:42:00,66.4,65.5,29.89,SSW,212,7.0,8.0,97,0.00,,,0.00,102,Wunderground v.1.15,2013-09-09 15:42:00,
2013-09-09 10:52:00,66.4,65.2,29.89,SSE,148,8.0,8.0,96,0.00,,,0.00,84,Wunderground v.1.15,2013-09-09 15:52:00,
2013-09-09 11:02:00,66.6,65.4,29.90,SSE,164,6.0,6.0,96,0.00,,,0.00,106,Wunderground v.1.15,2013-09-09 16:02:00,
2013-09-09 11:12:00,66.6,65.4,29.90,South,175,7.0,8.0,96,0.00,,,0.00,74,Wunderground v.1.15,2013-09-09 16:12:00,
2013-09-09 11:22:00,66.6,65.4,29.90,South,174,6.0,6.0,96,0.00,,,0.00,79,Wunderground v.1.15,2013-09-09 16:22:00,
2013-09-09 11:32:00,66.8,65.6,29.90,SSW,198,7.0,7.0,96,0.00,,,0.00,107,Wunderground v.1.15,2013-09-09 16:32:00,
2013-09-09 11:42:00,66.8,65.6,29.90,South,169,6.0,11.0,96,0.00,,,0.00,81,Wunderground v.1.15,2013-09-09 16:42:00,
2013-09-09 11:52:00,66.9,65.7,29.89,SSW,195,8.0,8.0,96,0.00,,,0.00,76,Wunderground v.1.15,2013-09-09 16:52:00,
2013-09-09 12:02:00,67.1,65.9,29.88,SSE,148,6.0,10.0,96,0.00,,,0.00,174,Wunderground v.1.15,2013-09-09 17:02:00,
2013-09-09 12:12:00,67.3,66.1,29.88,SSW,193,9.0,11.0,96,0.00,,,0.00,167,Wunderground v.1.15,2013-09-09 17:12:00,
2013-09-09 12:22:00,67.8,66.0,29.87,SSW,200,9.0,10.0,94,0.00,,,0.00,167,Wunderground v.1.15,2013-09-09 17:22:00,
2013-09-09 12:32:00,68.1,66.0,29.86,South,181,11.0,11.0,93,0.00,,,0.00,202,Wunderground v.1.15,2013-09-09 17:32:00,
2013-09-09 12:42:00,68.1,66.0,29.86,SSW,198,8.0,11.0,93,0.00,,,0.00,202,Wunderground v.1.15,2013-09-09 17:42:00,
2013-09-09 12:52:00,67.9,65.8,29.85,SSE,160,10.0,10.0,93,0.00,,,0.00,178,Wunderground v.1.15,2013-09-09 17:52:00,
2013-09-09 13:02:00,67.8,66.0,29.83,SE,145,11.0,11.0,94,0.00,,,0.00,248,Wunderground v.1.15,2013-09-09 18:02:00,
2013-09-09 13:12:00,68.6,67.1,29.83,South,184,10.0,13.0,95,0.00,,,0.00,248,Wunderground v.1.15,2013-09-09 18:12:00,
2013-09-09 13:22:00,68.8,67.3,29.81,SSW,213,11.0,13.0,95,0.00,,,0.00,248,Wunderground v.1.15,2013-09-09 18:22:00,
2013-09-09 13:32:00,68.9,66.5,29.81,SSW,203,13.0,18.0,92,0.00,,,0.00,366,Wunderground v.1.15,2013-09-09 18:32:00,
2013-09-09 13:42:00,68.9,66.5,29.81,SSW,193,12.0,12.0,92,0.00,,,0.00,366,Wunderground v.1.15,2013-09-09 18:42:00,
2013-09-09 13:52:00,68.9,66.5,29.80,SSE,167,10.0,10.0,92,0.00,,,0.00,366,Wunderground v.1.15,2013-09-09 18:52:00,
2013-09-09 14:02:00,68.8,66.4,29.81,South,171,12.0,12.0,92,0.00,,,0.00,241,Wunderground v.1.15,2013-09-09 19:02:00,
2013-09-09 14:12:00,68.9,66.5,29.81,South,176,12.0,12.0,92,0.00,,,0.00,271,Wunderground v.1.15,2013-09-09 19:12:00,
2013-09-09 14:22:00,68.9,66.8,29.80,South,188,12.0,15.0,93,0.00,,,0.00,292,Wunderground v.1.15,2013-09-09 19:22:00,
2013-09-09 14:32:00,68.8,67.0,29.80,South,179,11.0,11.0,94,0.00,,,0.00,181,Wunderground v.1.15,2013-09-09 19:32:00,
2013-09-09 14:42:00,69.1,67.0,29.80,South,178,12.0,12.0,93,0.00,,,0.00,315,Wunderground v.1.15,2013-09-09 19:42:00,
2013-09-09 14:52:00,68.9,66.8,29.79,South,182,11.0,13.0,93,0.00,,,0.00,313,Wunderground v.1.15,2013-09-09 19:52:00,
2013-09-09 15:02:00,68.6,67.4,29.78,South,182,11.0,11.0,96,0.00,,,0.00,113,Wunderground v.1.15,2013-09-09 20:02:00,
2013-09-09 15:12:00,68.3,67.4,29.78,SSW,195,10.0,12.0,97,0.00,,,0.00,146,Wunderground v.1.15,2013-09-09 20:12:00,
2013-09-09 15:22:00,68.3,68.0,29.77,SSW,208,9.0,12.0,99,0.00,,,0.00,155,Wunderground v.1.15,2013-09-09 20:22:00,
2013-09-09 15:32:00,68.4,68.1,29.76,SSW,198,10.0,12.0,99,0.00,,,0.00,165,Wunderground v.1.15,2013-09-09 20:32:00,
2013-09-09 15:42:00,68.4,68.4,29.76,SSW,203,12.0,19.0,100,0.00,,,0.00,125,Wunderground v.1.15,2013-09-09 20:42:00,
2013-09-09 15:52:00,68.4,68.4,29.75,South,184,10.0,10.0,100,0.00,,,0.00,202,Wunderground v.1.15,2013-09-09 20:52:00,
2013-09-09 16:02:00,68.6,68.6,29.75,South,178,8.0,8.0,100,0.00,,,0.00,107,Wunderground v.1.15,2013-09-09 21:02:00,
2013-09-09 16:12:00,68.6,68.6,29.75,South,178,10.0,13.0,100,0.00,,,0.00,102,Wunderground v.1.15,2013-09-09 21:12:00,
2013-09-09 16:22:00,68.8,68.8,29.75,South,182,11.0,11.0,100,0.00,,,0.00,130,Wunderground v.1.15,2013-09-09 21:22:00,
2013-09-09 16:42:00,68.9,68.6,29.74,SSW,198,12.0,12.0,99,0.00,,,0.00,123,Wunderground v.1.15,2013-09-09 21:42:00,
2013-09-09 16:52:00,68.8,68.2,29.73,South,181,11.0,11.0,98,0.00,,,0.00,99,Wunderground v.1.15,2013-09-09 21:52:00,
2013-09-09 17:02:00,68.8,68.2,29.73,SSW,192,9.0,13.0,98,0.00,,,0.00,67,Wunderground v.1.15,2013-09-09 22:02:00,
2013-09-09 17:12:00,68.8,68.5,29.73,SSE,165,7.0,7.0,99,0.00,,,0.00,62,Wunderground v.1.15,2013-09-09 22:12:00,
2013-09-09 17:22:00,68.8,68.5,29.73,SSE,167,9.0,13.0,99,0.00,,,0.00,74,Wunderground v.1.15,2013-09-09 22:22:00,
2013-09-09 17:32:00,69.1,68.8,29.72,South,178,8.0,8.0,99,0.00,,,0.00,123,Wunderground v.1.15,2013-09-09 22:32:00,
2013-09-09 17:42:00,69.3,68.7,29.72,SSW,196,8.0,8.0,98,0.00,,,0.00,143,Wunderground v.1.15,2013-09-09 22:42:00,
2013-09-09 17:52:00,69.6,68.7,29.72,South,176,9.0,9.0,97,0.00,,,0.00,69,Wunderground v.1.15,2013-09-09 22:52:00,
2013-09-09 18:12:00,69.4,68.8,29.72,SSW,195,10.0,10.0,98,0.00,,,0.00,30,Wunderground v.1.15,2013-09-09 23:12:00,
2013-09-09 18:22:00,69.3,68.7,29.71,South,188,9.0,9.0,98,0.00,,,0.00,23,Wunderground v.1.15,2013-09-09 23:22:00,
2013-09-09 18:32:00,69.1,68.8,29.70,SSE,164,8.0,8.0,99,0.00,,,0.00,30,Wunderground v.1.15,2013-09-09 23:32:00,
2013-09-09 18:42:00,69.3,69.0,29.70,SSE,157,10.0,14.0,99,0.00,,,0.00,26,Wunderground v.1.15,2013-09-09 23:42:00,
2013-09-09 18:52:00,69.1,68.8,29.69,SSW,199,10.0,10.0,99,0.00,,,0.00,16,Wunderground v.1.15,2013-09-09 23:52:00,
2013-09-09 19:02:00,69.3,69.0,29.69,South,174,7.0,7.0,99,0.00,,,0.00,5,Wunderground v.1.15,2013-09-10 00:02:00,
2013-09-09 19:12:00,69.3,69.0,29.69,South,186,7.0,7.0,99,0.00,,,0.00,0,Wunderground v.1.15,2013-09-10 00:12:00,
2013-09-09 19:22:00,69.4,69.1,29.68,South,171,7.0,7.0,99,0.00,,,0.00,0,Wunderground v.1.15,2013-09-10 00:22:00,
2013-09-09 19:32:00,69.6,69.3,29.68,South,189,8.0,8.0,99,0.00,,,0.00,0,Wunderground v.1.15,2013-09-10 00:32:00,
2013-09-09 19:42:00,69.9,69.6,29.68,South,175,8.0,8.0,99,0.00,,,0.00,0,Wunderground v.1.15,2013-09-10 00:42:00,
2013-09-09 20:02:00,70.6,70.0,29.68,SSW,196,7.0,10.0,98,0.00,,,0.00,0,Wunderground v.1.15,2013-09-10 01:02:00,
2013-09-09 20:12:00,70.8,69.9,29.68,SSW,198,6.0,7.0,97,0.00,,,0.00,0,Wunderground v.1.15,2013-09-10 01:12:00,
2013-09-09 20:22:00,70.9,70.0,29.69,South,185,5.0,5.0,97,0.00,,,0.00,0,Wunderground v.1.15,2013-09-10 01:22:00,
2013-09-09 20:32:00,70.9,70.0,29.69,South,191,3.0,3.0,97,0.00,,,0.00,0,Wunderground v.1.15,2013-09-10 01:32:00,
2013-09-09 20:42:00,70.8,69.9,29.69,SSW,200,3.0,3.0,97,0.00,,,0.00,0,Wunderground v.1.15,2013-09-10 01:42:00,
2013-09-09 20:52:00,70.6,69.7,29.69,SSW,199,1.0,1.0,97,0.00,,,0.00,0,Wunderground v.1.15,2013-09-10 01:52:00,
2013-09-09 21:02:00,70.3,69.7,29.69,SSW,199,1.0,4.0,98,0.00,,,0.00,0,Wunderground v.1.15,2013-09-10 02:02:00,
2013-09-09 21:12:00,70.1,69.5,29.69,SSW,199,1.0,3.0,98,0.00,,,0.00,0,Wunderground v.1.15,2013-09-10 02:12:00,
2013-09-09 21:22:00,69.9,69.6,29.68,SSW,199,1.0,1.0,99,0.00,,,0.00,0,Wunderground v.1.15,2013-09-10 02:22:00,
2013-09-09 21:32:00,69.6,69.3,29.68,SSW,199,0.0,2.0,99,0.00,,,0.00,0,Wunderground v.1.15,2013-09-10 02:32:00,
2013-09-09 21:42:00,69.4,69.4,29.68,SSW,200,1.0,1.0,100,0.00,,,0.00,0,Wunderground v.1.15,2013-09-10 02:42:00,
2013-09-09 21:52:00,69.3,69.3,29.68,SSW,199,1.0,2.0,100,0.00,,,0.00,0,Wunderground v.1.15,2013-09-10 02:52:00,
2013-09-09 22:02:00,69.3,69.3,29.67,SSW,199,1.0,1.0,100,0.00,,,0.00,0,Wunderground v.1.15,2013-09-10 03:02:00,
2013-09-09 22:12:00,69.3,69.3,29.67,SSW,199,0.0,0.0,100,0.00,,,0.00,0,Wunderground v.1.15,2013-09-10 03:12:00,
2013-09-09 22:22:00,69.3,69.3,29.67,SSW,200,0.0,0.0,100,0.00,,,0.00,0,Wunderground v.1.15,2013-09-10 03:22:00,
2013-09-09 22:42:00,69.8,69.8,29.67,SSW,200,0.0,2.0,100,0.00,,,0.00,0,Wunderground v.1.15,2013-09-10 03:42:00,
2013-09-09 22:52:00,70.3,70.3,29.66,SSW,199,0.0,3.0,100,0.00,,,0.00,0,Wunderground v.1.15,2013-09-10 03:52:00,
2013-09-09 23:02:00,71.3,71.3,29.66,SSW,205,1.0,1.0,100,0.00,,,0.00,0,Wunderground v.1.15,2013-09-10 04:02:00,
2013-09-09 23:12:00,72.7,72.7,29.66,WSW,237,4.0,4.0,100,0.00,,,0.00,0,Wunderground v.1.15,2013-09-10 04:12:00,
2013-09-09 23:22:00,74.7,74.7,29.65,SW,217,5.0,7.0,100,0.00,,,0.00,0,Wunderground v.1.15,2013-09-10 04:22:00,
2013-09-09 23:32:00,76.3,72.8,29.65,WSW,239,5.0,5.0,89,0.00,,,0.00,0,Wunderground v.1.15,2013-09-10 04:32:00,
2013-09-09 23:42:00,77.0,73.5,29.65,SW,227,5.0,5.0,89,0.00,,,0.00,0,Wunderground v.1.15,2013-09-10 04:42:00,
2013-09-09 23:52:00,78.3,74.8,29.65,WSW,244,3.0,3.0,89,0.00,,,0.00,0,Wunderground v.1.15,2013-09-10 04:52:00,